logo
App data

TurnOn

"TurnOn" tells the spellbinding tale of a brave alien creature and its striking journey through blackout world, in an incredibly colorful and detailed platformer without platforms.
Store | Hub | SteamDB | Site
Developer: Brainy Studio LLC Publisher: Brainy Studio LLC
Genre: Action, Adventure, Casual, Indie
Languages: English, French, Italian, German, Spanish - Spain, Hungarian, Greek, Simplified Chinese, Polish, Portuguese, Portuguese - Brazil, Russian, Thai, Turkish, Finnish, Czech, Japanese, Dutch, Korean
Tags: Indie (52), Adventure (52), Casual (49), Action (47), Platformer (44), Puzzle-Platformer (37), Colorful (37), Cute (37), Side Scroller (37), Family Friendly (37), Funny (34), Music (34), Cartoon (34), Great Soundtrack (31), Singleplayer (29), 2.5D (29), Exploration (29), Story Rich (27), Hand-drawn (26), Difficult (25)
Category: Single-player, Steam Achievements, Steam Trading Cards, Captions available, Partial Controller Support, Steam Cloud
Release date: Jun 1, 2016
Price: $14.99
Old userscore: 83% Metascore: 67%
Owners: 20,000 .. 50,000
Followers: 0
Peak concurrent players yesterday: 2
YouTube stats: 22,826 views and 216 comments for videos uploaded last week, 5 new videos uploaded yesterday.
Playtime total: 01:31 (average) 01:31 (median)

Steam Spy is still in beta, so expect major bugs.

Owners data:

Access restricted.

This feature is only available to users with special access rights. Sorry.

If you want to proceed, you need to register or log in first and then back Steam Spy on Patreon. Look for Indie or Pro pledge.

Don't forget to use the same email as on Steam Spy!

Audience in 2 weeks:

Access restricted.

This feature is only available to users with special access rights. Sorry.

If you want to proceed, you need to register or log in first and then back Steam Spy on Patreon. Look for Indie or Pro pledge.

Don't forget to use the same email as on Steam Spy!

Peak daily concurrent players:

CCU data courtesy of SteamDB. Used with permission.

Hourly concurrent players:

Daily Twitch stats:

Hourly Twitch stats:

YouTube:

The views data is based on top 50 videos uploaded last week. Actual number of views might be more than the number shown.

The displayed number of videos uploaded yesterday is limited to 50, so if there were more videos uploaded, the number will still show 50.

If the game has commonly used word as its name (like "FEAR" or "Volume") its number of Youtube views might be wrong.

Games similar to this one:

# Game Release date
Price
Score rank
(Userscore / Metascore)
Owners
Players
Playtime (Median)
1 The Quest for Achievements Apr 7, 2017 $4.99N/A (N/A)50,000 .. 100,0000%00:00 (00:00)
2 Karma Miwa Aug 12, 2016 $0.99N/A (N/A)20,000 .. 50,0000%00:00 (00:00)
3 Blaster Shooter GunGuy! Aug 10, 2015 $1.99N/A (N/A)100,000 .. 200,0000%00:00 (00:00)
4 Back to Bed Aug 6, 2014 $1.49N/A (N/A)500,000 .. 1,000,0000%00:00 (00:00)
5 Tales From Space: Mutant Blobs Attack Aug 15, 2012 $9.99N/A (N/A/83%)100,000 .. 200,00011.11%01:22 (00:27)
6 Starship Annihilator Sep 2, 2016 $0.99N/A (N/A)50,000 .. 100,0000%00:00 (00:00)
7 Hero Quest: Tower Conflict Apr 13, 2016 $0.99N/A (N/A)200,000 .. 500,0000%00:00 (00:00)
8 On A Roll 3D Feb 12, 2015 $3.99N/A (N/A)50,000 .. 100,0000%00:00 (00:00)
9 Survivor Squad Nov 8, 2013 $0.59N/A (N/A)100,000 .. 200,0000%00:00 (00:00)
10 Guns of Icarus Alliance Mar 31, 2017 $9.99N/A (N/A)200,000 .. 500,0000%00:00 (00:00)
11 Super Duper Party Pooper Jun 6, 2016 $0.99N/A (N/A/40%)100,000 .. 200,0000%00:00 (00:00)
12 Wild Island Quest Sep 4, 2015 $1.99N/A (N/A)50,000 .. 100,0000%00:00 (00:00)
13 OTTTD Aug 6, 2014 $7.99N/A (N/A)50,000 .. 100,0000%00:00 (00:00)
14 Unmechanical Aug 8, 2012 $9.99N/A (N/A/74%)50,000 .. 100,0000%00:00 (00:00)
15 Night Forest Nov 8, 2016 $0.51N/A (N/A)100,000 .. 200,0000%00:00 (00:00)
16 Domino Sky Apr 5, 2016 $1.11N/A (N/A)0 .. 20,0000%00:00 (00:00)
17 Countless Rooms of Death Feb 20, 2014 $0.99N/A (N/A)20,000 .. 50,0000%00:00 (00:00)
18 Montague's Mount Nov 19, 2013 $4.99N/A (N/A/39%)20,000 .. 50,0000%00:00 (00:00)
19 The Archotek Project Apr 28, 2017 $4.99N/A (N/A)50,000 .. 100,0001.25%00:03 (00:01)
20 Bye-Bye, Wacky Planet Nov 4, 2016 $0.51N/A (N/A)200,000 .. 500,0000%00:00 (00:00)
21 1,000 Heads Among the Trees Dec 11, 2015 $6.99N/A (N/A)50,000 .. 100,0000%00:00 (00:00)
22 Velocibox Sep 8, 2014 $7.99N/A (N/A)50,000 .. 100,0000%00:00 (00:00)
23 Home Aug 31, 2012 $2.99N/A (N/A/69%)200,000 .. 500,0000%00:00 (00:00)
24 VoxreD Sep 30, 2016 $0.99N/A (N/A)50,000 .. 100,0000%00:00 (00:00)
25 Neon Space ULTRA Jun 1, 2016 $2.99N/A (N/A)50,000 .. 100,0000%00:00 (00:00)
26 Centauri Sector Jun 24, 2015 $4.99N/A (N/A)20,000 .. 50,0000%00:00 (00:00)
27 Rabbit Hole 3D: Steam Edition Apr 25, 2014 $2.99N/A (N/A)50,000 .. 100,0000%00:00 (00:00)
28 Phantom Soldier Mar 29, 2017 $4.99N/A (N/A)100,000 .. 200,0000%00:00 (00:00)
29 You Deserve Aug 19, 2016 $0.99N/A (N/A)20,000 .. 50,0000%00:00 (00:00)
30 Heavy Gear Assault Feb 10, 2017 $39.99N/A (N/A)0 .. 20,0000%00:00 (00:00)
31 Squishy the Suicidal Pig Oct 23, 2014 $5.99N/A (N/A)200,000 .. 500,0000%00:00 (00:00)
32 Papo & Yo Apr 18, 2013 $14.99N/A (N/A/70%)200,000 .. 500,0000%00:00 (00:00)
33 Sleight Nov 9, 2016 $0.49N/A (N/A)100,000 .. 200,0000%00:00 (00:00)
34 上帝之城 I:监狱帝国 [City of God I - Prison Empire] Jul 9, 2018 $18.99N/A (N/A)50,000 .. 100,0000%00:00 (00:00)
35 Spellsworn Mar 13, 2018 FreeN/A (N/A)100,000 .. 200,0000%00:00 (00:00)
36 Three Dead Zed Jul 7, 2014 $5.99N/A (N/A)50,000 .. 100,0000%00:00 (00:00)
37 Outrunner Apr 12, 2017 $0.99N/A (N/A)50,000 .. 100,0000%00:00 (00:00)
38 Dinosaur Forest May 17, 2017 $1.99N/A (N/A)50,000 .. 100,0000%00:00 (00:00)
39 Godus Wars Feb 3, 2016 $14.99N/A (N/A)100,000 .. 200,0000%00:00 (00:00)
40 Horizon Shift May 29, 2015 $4.99N/A (N/A)200,000 .. 500,0000%00:00 (00:00)
41 Godus N/AN/A (N/A)100,000 .. 200,0000%00:00 (00:00)
42 Wayout Nov 4, 2016 $0.99N/A (N/A)50,000 .. 100,0000%00:00 (00:00)
43 Overhell May 27, 2016 $1.99N/A (N/A)200,000 .. 500,0000%00:00 (00:00)
44 Luna Sky Oct 2, 2015 $12.99N/A (N/A)50,000 .. 100,0000%00:00 (00:00)
45 Uriel's Chasm Sep 12, 2014 $4.99N/A (N/A)200,000 .. 500,0000%00:00 (00:00)
46 Aircraft War X Aug 5, 2016 $0.99N/A (N/A)100,000 .. 200,0000%00:00 (00:00)
47 Bell Ringer Mar 6, 2016 $6.99N/A (N/A)200,000 .. 500,0000%00:00 (00:00)
48 Phoenix Force Nov 13, 2014 $3.99N/A (N/A)50,000 .. 100,0000%00:00 (00:00)
49 Zack Zero Apr 29, 2013 $2.99N/A (N/A)50,000 .. 100,0000%00:00 (00:00)
50 99Vidas Dec 22, 2016 $12.99N/A (N/A/69%)20,000 .. 50,0000%00:00 (00:00)
51 Beater Spirit Jun 1, 2016 $5.99N/A (N/A)100,000 .. 200,0000%00:00 (00:00)
52 The Adventures of Mr. Bobley Jun 30, 2015 $3.99N/A (N/A)50,000 .. 100,0000%00:00 (00:00)
53 Dreaming Sarah Mar 12, 2015 $5.99N/A (N/A)200,000 .. 500,0000%00:00 (00:00)
54 Joana's Life Sep 1, 2016 $5.99N/A (N/A)20,000 .. 50,0000%00:00 (00:00)
55 PERFECT ANGLE: The puzzle game based on optical illusions Dec 22, 2015 $9.99N/A (N/A)50,000 .. 100,0000%00:00 (00:00)
56 Marvin's Mittens Dec 17, 2014 $5.99N/A (N/A)0 .. 20,0000%00:00 (00:00)
57 The Novelist Dec 10, 2013 $3.39N/A (N/A/66%)100,000 .. 200,0000%00:00 (00:00)
58 Witch It May 31, 2017 $7.49N/A (N/A)100,000 .. 200,00014.29%00:21 (00:07)
59 Star Drifter Jun 1, 2016 $0.99N/A (N/A)200,000 .. 500,0000%00:00 (00:00)
60 Aviary Attorney Dec 21, 2015 $14.99N/A (N/A/77%)50,000 .. 100,0000%00:00 (00:00)
61 Frederic: Evil Strikes Back May 23, 2014 $7.99N/A (N/A)100,000 .. 200,0000%00:00 (00:00)
62 It Comes Around - A Kinetic Novel Sep 29, 2016 $2.99N/A (N/A)20,000 .. 50,0000%00:00 (00:00)
63 Cubium Dreams Apr 29, 2016 $0.51N/A (N/A)200,000 .. 500,0000%00:00 (00:00)
64 A Druid's Duel Feb 25, 2015 $7.99N/A (N/A/70%)0 .. 20,0000%00:00 (00:00)
65 Solar Flux Oct 24, 2013 $9.99N/A (N/A)100,000 .. 200,0000%00:00 (00:00)
66 Introvert Quest Mar 15, 2017 $4.99N/A (N/A)200,000 .. 500,0000%00:00 (00:00)
67 Call Of The Mighty Warriors Mar 1, 2019 $0.99N/A (N/A)20,000 .. 50,0000%00:00 (00:00)
68 Redemption: Eternal Quest Aug 28, 2015 $1.99N/A (N/A)100,000 .. 200,0000%00:00 (00:00)
69 Rhythm Destruction Jun 16, 2014 $4.99N/A (N/A)50,000 .. 100,0000%00:00 (00:00)
70 Brave Dungeon Sep 2, 2016 $0.99N/A (N/A)50,000 .. 100,0000%00:00 (00:00)
71 Cube Land Arena Mar 8, 2019 $0.99N/A (N/A)0 .. 20,0000%00:00 (00:00)
72 Chronicles of a Dark Lord: Episode 1 Tides of Fate Complete Dec 19, 2014 $0.99N/A (N/A)50,000 .. 100,0000%00:00 (00:00)
73 Escape Goat 2 Mar 24, 2014 $9.99N/A (N/A/76%)50,000 .. 100,0000%00:00 (00:00)

Tags over time:

Access restricted.

This feature is only available to users with special access rights. Sorry.

If you want to proceed, you need to register or log in first and then back Steam Spy on Patreon. Look for Indie or Pro pledge.

Don't forget to use the same email as on Steam Spy!

Owners of this game also own:

Access restricted.

This feature is only available to users with special access rights. Sorry.

If you want to proceed, you need to register or log in first and then back Steam Spy on Patreon. Look for Indie or Pro pledge.

Don't forget to use the same email as on Steam Spy!

Playtime distribution:

Access restricted.

This feature is only available to users with special access rights. Sorry.

If you want to proceed, you need to register or log in first and then back Steam Spy on Patreon. Look for Indie or Pro pledge.

Don't forget to use the same email as on Steam Spy!

Playtime (2 weeks):

Access restricted.

This feature is only available to users with special access rights. Sorry.

If you want to proceed, you need to register or log in first and then back Steam Spy on Patreon. Look for Indie or Pro pledge.

Don't forget to use the same email as on Steam Spy!

User reviews:

Login required.

Please register or log in to see this information.